Time;durP1;ratioP1;P1;durP2;ratioP2;P2;SDS_P1;SDS_P2;PMS_P1;PMS_P2;Temp;Humidity;BMP_temperature;BMP_pressure;BME280_temperature;BME280_humidity;BME280_pressure;Samples;Min_cycle;Max_cycle;Signal;HPM_P1;HPM_P2
2022/06/08 07:09:13;;;;;;;27.00;3.22;;;19.80;61.80;;;;;;5082752;27;1488832;-72
2022/06/08 07:11:41;;;;;;;25.35;4.25;;;19.70;62.40;;;;;;5117960;28;20194;-72
2022/06/08 07:14:11;;;;;;;21.00;3.60;;;19.50;63.50;;;;;;5116898;28;20718;-67
2022/06/08 07:16:39;;;;;;;29.60;4.25;;;19.30;64.30;;;;;;5117451;28;20199;-67
2022/06/08 07:19:08;;;;;;;15.93;3.55;;;19.20;64.60;;;;;;5118369;28;20270;-65
2022/06/08 07:21:36;;;;;;;22.95;3.25;;;19.10;65.00;;;;;;5118841;28;20658;-65
2022/06/08 07:24:03;;;;;;;21.40;3.90;;;19.10;65.00;;;;;;5119588;28;20224;-65
2022/06/08 07:26:32;;;;;;;31.38;4.60;;;19.10;65.00;;;;;;5118166;28;20610;-65
2022/06/08 07:28:59;;;;;;;17.25;3.50;;;19.10;65.00;;;;;;5119550;28;20308;-66
2022/06/08 07:31:28;;;;;;;22.50;3.65;;;19.10;65.00;;;;;;5117451;28;20193;-67
2022/06/08 07:33:55;;;;;;;21.33;4.60;;;19.00;64.90;;;;;;5119660;28;20212;-65
2022/06/08 07:36:22;;;;;;;14.93;2.95;;;19.00;65.30;;;;;;5119233;28;20206;-67
2022/06/08 07:38:50;;;;;;;20.85;3.33;;;19.00;65.80;;;;;;5116732;28;20228;-66
2022/06/08 07:41:17;;;;;;;19.50;3.03;;;19.00;65.80;;;;;;5116529;28;20189;-68
2022/06/08 07:43:46;;;;;;;21.58;3.55;;;18.90;65.60;;;;;;5099295;28;20255;-68
2022/06/08 07:46:15;;;;;;;19.30;3.38;;;18.90;65.80;;;;;;5119382;28;20193;-67
2022/06/08 07:51:36;;;;;;;17.23;3.20;;;18.90;65.70;;;;;;5057708;28;20554;-67
2022/06/08 07:54:04;;;;;;;21.13;3.50;;;18.90;65.80;;;;;;5052736;28;20228;-68
2022/06/08 07:56:31;;;;;;;17.75;3.10;;;19.00;65.60;;;;;;5053456;28;20187;-68
2022/06/08 07:59:00;;;;;;;15.57;3.10;;;19.00;64.90;;;;;;5055349;28;20215;-70
2022/06/08 08:01:27;;;;;;;24.98;3.45;;;19.00;64.90;;;;;;5053796;28;20402;-68
2022/06/08 08:03:55;;;;;;;19.33;3.03;;;19.00;64.90;;;;;;5054328;28;20236;-69
2022/06/08 08:06:22;;;;;;;25.90;3.33;;;19.00;64.90;;;;;;5055683;28;20196;-68
2022/06/08 08:08:49;;;;;;;20.63;3.30;;;19.00;65.60;;;;;;5053442;28;20302;-68
2022/06/08 08:11:17;;;;;;;23.55;3.03;;;19.00;65.50;;;;;;5054823;28;20724;-67
2022/06/08 08:13:44;;;;;;;22.35;3.92;;;19.00;65.30;;;;;;5055504;28;20219;-68
2022/06/08 08:16:13;;;;;;;24.02;3.47;;;19.00;65.50;;;;;;5050297;28;20200;-68
2022/06/08 08:18:40;;;;;;;20.80;3.50;;;19.00;65.70;;;;;;5051136;28;20224;-68
2022/06/08 08:21:07;;;;;;;29.67;4.38;;;19.00;65.80;;;;;;5038344;28;20658;-68
2022/06/08 08:23:34;;;;;;;13.40;2.30;;;19.00;65.30;;;;;;5036905;28;20235;-68
2022/06/08 08:26:01;;;;;;;22.48;3.88;;;19.00;65.20;;;;;;5037134;28;20239;-68
2022/06/08 08:28:29;;;;;;;27.40;4.18;;;19.00;65.40;;;;;;5096728;28;20884;-68
2022/06/08 08:30:56;;;;;;;15.63;3.05;;;19.00;65.70;;;;;;5098740;28;20204;-68
2022/06/08 08:33:25;;;;;;;22.23;3.28;;;19.10;65.00;;;;;;5093650;28;20224;-68
2022/06/08 08:35:54;;;;;;;27.23;3.53;;;19.00;64.90;;;;;;5099237;28;20202;-68
2022/06/08 08:38:21;;;;;;;18.67;2.90;;;19.10;65.00;;;;;;5096795;28;20221;-68
2022/06/08 08:40:53;;;;;;;18.02;3.58;;;19.10;65.00;;;;;;5098886;28;20198;-68
2022/06/08 08:43:22;;;;;;;12.02;3.03;;;19.20;64.90;;;;;;5096795;28;20213;-68
2022/06/08 08:46:15;;;;;;;23.17;3.50;;;19.20;64.70;;;;;;5098618;28;20190;-68
2022/06/08 08:48:52;;;;;;;27.70;4.05;;;19.20;64.40;;;;;;5097990;28;20857;-68
2022/06/08 08:51:25;;;;;;;21.55;3.53;;;19.20;64.10;;;;;;5097481;28;20218;-68
2022/06/08 08:54:17;;;;;;;21.70;3.53;;;19.30;64.00;;;;;;5096240;28;20217;-69
2022/06/08 08:56:44;;;;;;;24.50;3.67;;;19.30;63.70;;;;;;5095625;28;20591;-68
2022/06/08 08:59:15;;;;;;;23.88;3.58;;;19.20;63.90;;;;;;5099524;28;20213;-68
2022/06/08 09:01:44;;;;;;;21.45;3.45;;;19.20;63.50;;;;;;5099072;28;20186;-68
2022/06/08 09:04:23;;;;;;;29.10;3.97;;;19.20;63.40;;;;;;5096760;28;20214;-68
2022/06/08 09:06:50;;;;;;;19.90;4.32;;;19.30;63.50;;;;;;5096800;28;20251;-68
2022/06/08 09:09:21;;;;;;;22.08;4.03;;;19.30;63.30;;;;;;5061325;28;20224;-68
2022/06/08 09:11:49;;;;;;;18.10;3.17;;;19.30;63.30;;;;;;5099072;28;20193;-68
2022/06/08 09:14:19;;;;;;;18.63;3.55;;;19.40;63.40;;;;;;5097273;28;20221;-68
2022/06/08 09:16:48;;;;;;;24.55;4.22;;;19.40;63.30;;;;;;5096342;28;20275;-68
2022/06/08 09:19:31;;;;;;;26.23;4.00;;;19.40;62.90;;;;;;5097921;28;20728;-68
2022/06/08 09:22:18;;;;;;;26.02;4.28;;;19.40;63.00;;;;;;5098245;28;20659;-68
2022/06/08 09:24:49;;;;;;;21.65;4.97;;;19.40;62.90;;;;;;5099545;28;20193;-68
2022/06/08 09:27:22;;;;;;;22.85;4.32;;;19.40;62.80;;;;;;5097509;28;20212;-67
2022/06/08 09:29:54;;;;;;;16.73;3.42;;;19.40;62.80;;;;;;5095834;28;20720;-68
2022/06/08 09:32:32;;;;;;;18.98;3.80;;;19.30;62.70;;;;;;5095387;28;20673;-69
2022/06/08 09:35:05;;;;;;;24.40;3.83;;;19.40;62.30;;;;;;5096053;28;20587;-66
2022/06/08 09:37:33;;;;;;;17.27;2.97;;;19.40;62.20;;;;;;5096923;28;20206;-66
2022/06/08 09:40:02;;;;;;;26.15;4.15;;;19.40;62.00;;;;;;5097906;28;20271;-69
2022/06/08 09:42:46;;;;;;;10.70;2.45;;;19.50;62.40;;;;;;5099072;28;20217;-69
2022/06/08 09:45:38;;;;;;;21.98;3.67;;;19.40;61.80;;;;;;5096885;28;20212;-69
2022/06/08 09:51:27;;;;;;;18.27;3.42;;;19.40;61.70;;;;;;5092917;28;20644;-69
2022/06/08 09:54:07;;;;;;;17.85;3.00;;;19.50;61.70;;;;;;5094803;28;20232;-69
2022/06/08 09:56:47;;;;;;;22.92;3.15;;;19.50;61.90;;;;;;5097601;28;20462;-67
2022/06/08 09:59:28;;;;;;;21.88;3.65;;;19.40;61.90;;;;;;5094621;28;20217;-68
2022/06/08 10:02:03;;;;;;;27.85;3.47;;;19.40;61.60;;;;;;5098009;28;20611;-66
2022/06/08 10:04:45;;;;;;;25.25;4.00;;;19.30;61.90;;;;;;5092924;28;20240;-67
2022/06/08 10:07:20;;;;;;;22.00;3.15;;;19.30;63.20;;;;;;5096731;28;20197;-65
2022/06/08 10:10:21;;;;;;;17.10;3.25;;;19.20;62.40;;;;;;5098618;28;20219;-65
2022/06/08 10:12:58;;;;;;;16.52;3.63;;;19.10;62.10;;;;;;5018062;28;20215;-67
